createdAt,value
2019-04-25T00:00:01.898Z,13.21
2019-04-25T00:02:33.272Z,13.18
2019-04-25T00:04:59.472Z,13.10
2019-04-25T00:07:25.656Z,13.04
2019-04-25T00:09:53.182Z,13.03
2019-04-25T00:12:19.739Z,13.03
2019-04-25T00:14:48.170Z,13.04
2019-04-25T00:17:14.637Z,13.06
2019-04-25T00:19:42.491Z,13.03
2019-04-25T00:22:11.786Z,13.01
2019-04-25T00:24:52.993Z,12.96
2019-04-25T00:27:19.406Z,12.94
2019-04-25T00:29:46.653Z,12.84
2019-04-25T00:32:12.945Z,12.83
2019-04-25T00:34:40.850Z,12.78
2019-04-25T00:37:07.191Z,12.74
2019-04-25T00:39:33.458Z,12.69
2019-04-25T00:41:59.630Z,12.65
2019-04-25T00:44:26.032Z,12.59
2019-04-25T00:46:56.547Z,12.54
2019-04-25T00:49:20.270Z,12.44
2019-04-25T00:51:46.447Z,12.34
2019-04-25T00:54:12.713Z,12.30
2019-04-25T00:56:39.019Z,12.30
2019-04-25T00:59:13.956Z,12.23
2019-04-25T01:01:46.503Z,12.19
2019-04-25T01:04:13.294Z,12.16
2019-04-25T01:06:39.523Z,12.13
2019-04-25T01:09:08.036Z,12.10
2019-04-25T01:11:34.256Z,12.07
2019-04-25T01:14:02.068Z,12.02
2019-04-25T01:16:28.519Z,12.00
2019-04-25T01:18:55.533Z,11.98
2019-04-25T01:21:22.063Z,11.97
2019-04-25T01:23:48.325Z,11.91
2019-04-25T01:26:14.847Z,11.89
2019-04-25T01:28:41.212Z,11.86
2019-04-25T01:31:09.378Z,11.81
2019-04-25T01:33:35.619Z,11.80
2019-04-25T01:36:06.689Z,11.76
2019-04-25T01:38:49.703Z,11.73
2019-04-25T01:41:34.231Z,11.67
2019-04-25T01:44:05.106Z,11.63
2019-04-25T01:46:34.126Z,11.60
2019-04-25T01:49:00.483Z,11.58
2019-04-25T01:51:26.747Z,11.57
2019-04-25T01:53:54.556Z,11.53
2019-04-25T01:56:21.085Z,11.51
2019-04-25T01:58:48.895Z,11.44
2019-04-25T02:01:16.157Z,11.47
2019-04-25T02:03:44.152Z,11.44
2019-04-25T02:06:10.498Z,11.38
2019-04-25T02:08:36.605Z,11.35
2019-04-25T02:11:05.011Z,11.31
2019-04-25T02:13:31.115Z,11.30
2019-04-25T02:15:57.517Z,11.26
2019-04-25T02:18:23.791Z,11.23
2019-04-25T02:20:50.114Z,11.23
2019-04-25T02:23:17.195Z,11.22
2019-04-25T02:25:44.262Z,11.19
2019-04-25T02:28:10.799Z,11.17
2019-04-25T02:30:37.190Z,11.15
2019-04-25T02:33:08.822Z,11.11
2019-04-25T02:35:31.809Z,11.07
2019-04-25T02:38:01.299Z,11.03
2019-04-25T02:40:26.470Z,10.99
2019-04-25T02:42:55.632Z,10.98
2019-04-25T02:45:37.849Z,10.89
2019-04-25T02:48:24.238Z,10.90
2019-04-25T02:50:54.080Z,10.86
2019-04-25T02:53:37.897Z,10.81
2019-04-25T02:56:12.382Z,10.80
2019-04-25T02:58:34.225Z,10.77
2019-04-25T03:01:10.754Z,10.71
2019-04-25T03:03:29.161Z,10.70
2019-04-25T03:05:57.354Z,10.67
2019-04-25T03:08:24.393Z,10.60
2019-04-25T03:10:50.929Z,10.55
2019-04-25T03:13:17.248Z,10.53
2019-04-25T03:15:44.188Z,10.50
2019-04-25T03:18:14.567Z,10.52
2019-04-25T03:20:45.160Z,10.52
2019-04-25T03:23:14.479Z,10.49
2019-04-25T03:25:41.067Z,10.50
2019-04-25T03:28:07.607Z,10.50
2019-04-25T03:30:35.538Z,10.49
2019-04-25T03:33:03.737Z,10.58
2019-04-25T03:35:30.144Z,10.55
2019-04-25T03:37:56.253Z,10.52
2019-04-25T03:40:23.532Z,10.51
2019-04-25T03:42:49.942Z,10.50
2019-04-25T03:45:16.151Z,10.47
2019-04-25T03:47:43.229Z,10.45
2019-04-25T03:50:09.885Z,10.44
2019-04-25T03:52:37.123Z,10.45
2019-04-25T03:55:07.413Z,10.44
2019-04-25T03:57:33.405Z,10.42
2019-04-25T03:59:59.631Z,10.42
2019-04-25T04:02:25.866Z,10.44
2019-04-25T04:04:53.601Z,10.44
2019-04-25T04:07:20.056Z,10.41
2019-04-25T04:09:46.207Z,10.36
2019-04-25T04:12:12.498Z,10.37
2019-04-25T04:14:38.616Z,10.35
2019-04-25T04:17:16.084Z,10.42
2019-04-25T04:19:59.330Z,10.43
2019-04-25T04:22:31.202Z,10.44
2019-04-25T04:24:59.261Z,10.47
2019-04-25T04:27:25.532Z,10.53
2019-04-25T04:29:51.787Z,10.58
2019-04-25T04:32:17.929Z,10.60
2019-04-25T04:34:45.517Z,10.61
2019-04-25T04:37:13.942Z,10.62
2019-04-25T04:39:39.878Z,10.61
2019-04-25T04:42:06.089Z,10.62
2019-04-25T04:44:32.257Z,10.60
2019-04-25T04:47:00.028Z,10.62
2019-04-25T04:49:26.114Z,10.69
2019-04-25T04:51:54.103Z,10.70
2019-04-25T04:54:20.465Z,10.69
2019-04-25T04:56:46.739Z,10.74
2019-04-25T04:59:14.609Z,10.78
2019-04-25T05:02:00.204Z,10.82
2019-04-25T05:04:31.039Z,10.86
2019-04-25T05:07:03.599Z,10.91
2019-04-25T05:09:29.958Z,10.95
2019-04-25T05:11:56.203Z,11.02
2019-04-25T05:14:24.268Z,11.10
2019-04-25T05:16:50.745Z,11.23
2019-04-25T05:19:17.987Z,11.36
2019-04-25T05:21:45.652Z,11.46
2019-04-25T05:24:12.847Z,11.54
2019-04-25T05:26:39.580Z,11.62
2019-04-25T05:29:05.815Z,11.69
2019-04-25T05:31:34.219Z,11.77
2019-04-25T05:34:00.483Z,11.85
2019-04-25T05:36:28.561Z,11.90
2019-04-25T05:38:54.713Z,11.92
2019-04-25T05:41:39.939Z,11.96
2019-04-25T05:44:06.053Z,11.99
2019-04-25T05:46:34.155Z,12.01
2019-04-25T05:49:00.521Z,12.01
2019-04-25T05:51:26.689Z,12.01
2019-04-25T05:57:04.876Z,11.98
2019-04-25T05:59:31.193Z,11.98
2019-04-25T06:01:57.336Z,12.01
2019-04-25T06:04:24.656Z,12.12
2019-04-25T06:06:53.079Z,12.22
2019-04-25T06:09:21.892Z,12.31
2019-04-25T06:11:49.974Z,12.40
2019-04-25T06:14:18.414Z,12.50
2019-04-25T06:16:44.646Z,12.59
2019-04-25T06:19:20.812Z,12.68
2019-04-25T06:21:47.415Z,12.81
2019-04-25T06:24:15.496Z,12.90
2019-04-25T06:26:44.178Z,12.98
2019-04-25T06:29:10.526Z,13.07
2019-04-25T06:31:36.863Z,13.15
2019-04-25T06:34:04.579Z,13.16
2019-04-25T06:36:30.800Z,13.19
2019-04-25T06:38:57.037Z,13.21
2019-04-25T06:41:25.606Z,13.22
2019-04-25T06:43:54.163Z,13.23
2019-04-25T06:46:25.736Z,13.27
2019-04-25T06:48:57.150Z,13.31
2019-04-25T06:51:26.001Z,13.37
2019-04-25T06:53:53.504Z,13.44
2019-04-25T06:56:19.834Z,13.49
2019-04-25T06:58:46.095Z,13.55
2019-04-25T07:01:13.481Z,13.63
2019-04-25T07:03:39.827Z,13.70
2019-04-25T07:06:06.230Z,13.78
2019-04-25T07:08:33.334Z,13.82
2019-04-25T07:11:00.531Z,13.86
2019-04-25T07:13:26.982Z,13.93
2019-04-25T07:15:53.466Z,13.98
2019-04-25T07:18:19.627Z,14.04
2019-04-25T07:20:45.948Z,14.14
2019-04-25T07:23:13.591Z,14.23
2019-04-25T07:25:43.701Z,14.37
2019-04-25T07:28:29.058Z,14.48
2019-04-25T07:31:09.290Z,14.58
2019-04-25T07:33:53.965Z,14.70
2019-04-25T07:36:20.184Z,14.77
2019-04-25T07:38:46.367Z,14.88
2019-04-25T07:41:14.671Z,14.90
2019-04-25T07:43:40.749Z,14.92
2019-04-25T07:46:07.489Z,15.03
2019-04-25T07:48:36.628Z,15.11
2019-04-25T07:51:01.807Z,15.21
2019-04-25T07:53:30.232Z,15.32
2019-04-25T07:55:56.206Z,15.43
2019-04-25T07:58:35.596Z,15.56
2019-04-25T08:00:53.971Z,15.63
2019-04-25T08:03:20.419Z,15.69
2019-04-25T08:05:46.584Z,15.78
2019-04-25T08:08:13.591Z,15.77
2019-04-25T08:10:55.732Z,15.93
2019-04-25T08:13:23.432Z,15.93
2019-04-25T08:15:54.474Z,15.99
2019-04-25T08:18:25.243Z,16.09
2019-04-25T08:20:50.499Z,16.13
2019-04-25T08:23:17.377Z,16.18
2019-04-25T08:25:43.669Z,16.27
2019-04-25T08:28:09.895Z,16.32
2019-04-25T08:30:36.691Z,16.36
2019-04-25T08:33:04.127Z,16.46
2019-04-25T08:35:34.218Z,16.56
2019-04-25T08:38:00.845Z,16.67
2019-04-25T08:40:28.689Z,16.75
2019-04-25T08:42:54.801Z,16.92
2019-04-25T08:45:21.913Z,16.98
2019-04-25T08:47:48.023Z,17.17
2019-04-25T08:50:26.711Z,17.28
2019-04-25T08:52:44.787Z,17.52
2019-04-25T08:55:29.485Z,17.66
2019-04-25T08:58:00.532Z,17.77
2019-04-25T09:00:58.260Z,17.84
2019-04-25T09:03:17.118Z,18.00
2019-04-25T09:05:46.279Z,18.10
2019-04-25T09:08:14.243Z,18.16
2019-04-25T09:10:41.282Z,18.26
2019-04-25T09:13:07.493Z,18.35
2019-04-25T09:15:36.578Z,18.59
2019-04-25T09:18:02.077Z,18.79
2019-04-25T09:20:28.342Z,18.97
2019-04-25T09:22:54.564Z,19.17
2019-04-25T09:25:20.863Z,19.32
2019-04-25T09:27:47.125Z,19.50
2019-04-25T09:30:14.451Z,19.64
2019-04-25T09:32:40.818Z,19.77
2019-04-25T09:35:07.138Z,19.94
2019-04-25T09:37:34.537Z,20.16
2019-04-25T09:40:04.268Z,20.40
2019-04-25T09:42:30.783Z,20.61
2019-04-25T09:44:58.861Z,20.79
2019-04-25T09:47:25.142Z,20.96
2019-04-25T09:49:51.590Z,21.14
2019-04-25T09:52:19.566Z,21.35
2019-04-25T09:55:05.526Z,21.52
2019-04-25T09:59:59.942Z,21.91
2019-04-25T10:02:26.410Z,22.07
2019-04-25T10:04:52.654Z,22.23
2019-04-25T10:07:18.973Z,22.38
2019-04-25T10:09:48.388Z,22.60
2019-04-25T10:12:14.723Z,22.75
2019-04-25T10:14:54.281Z,22.92
2019-04-25T10:17:20.586Z,23.12
2019-04-25T10:19:46.822Z,23.22
2019-04-25T10:22:13.686Z,23.45
2019-04-25T10:24:40.266Z,23.71
2019-04-25T10:27:06.587Z,24.03
2019-04-25T10:29:41.650Z,24.32
2019-04-25T10:32:01.914Z,24.65
2019-04-25T10:34:28.390Z,24.93
2019-04-25T10:36:54.656Z,25.37
2019-04-25T10:39:21.054Z,26.07
2019-04-25T10:41:48.290Z,26.60
2019-04-25T10:44:14.617Z,27.56
2019-04-25T10:46:41.771Z,28.47
2019-04-25T10:49:08.222Z,28.92
2019-04-25T10:51:34.436Z,30.02
2019-04-25T10:54:00.533Z,30.98
2019-04-25T10:56:26.737Z,31.44
2019-04-25T10:58:54.805Z,32.08
2019-04-25T11:01:34.894Z,32.20
2019-04-25T11:04:05.700Z,32.34
2019-04-25T11:06:33.470Z,33.03
2019-04-25T11:08:59.913Z,33.67
2019-04-25T11:11:26.315Z,34.03
2019-04-25T11:13:55.726Z,34.64
2019-04-25T11:16:22.121Z,34.79
2019-04-25T11:18:49.555Z,35.78
2019-04-25T11:21:15.958Z,35.72
2019-04-25T11:23:44.277Z,36.36
2019-04-25T11:26:11.601Z,35.58
2019-04-25T11:28:39.429Z,35.98
2019-04-25T11:31:07.627Z,36.28
2019-04-25T11:33:34.286Z,36.66
2019-04-25T11:36:00.652Z,37.62
2019-04-25T11:38:30.893Z,37.50
2019-04-25T11:41:10.973Z,37.50
2019-04-25T11:43:38.308Z,36.78
2019-04-25T11:46:04.989Z,37.45
2019-04-25T11:48:31.425Z,38.17
2019-04-25T11:50:57.913Z,38.70
2019-04-25T11:53:25.046Z,39.30
2019-04-25T11:55:51.480Z,39.59
2019-04-25T11:58:18.576Z,39.87
2019-04-25T12:00:45.986Z,38.83
2019-04-25T12:03:12.574Z,38.27
2019-04-25T12:05:38.905Z,38.27
2019-04-25T12:08:05.269Z,38.89
2019-04-25T12:10:32.481Z,39.67
2019-04-25T12:12:58.783Z,39.87
2019-04-25T12:15:25.356Z,39.95
2019-04-25T12:17:51.780Z,40.59
2019-04-25T12:20:18.506Z,39.34
2019-04-25T12:22:45.439Z,39.12
2019-04-25T12:25:13.430Z,39.69
2019-04-25T12:27:41.063Z,40.10
2019-04-25T12:30:07.760Z,39.60
2019-04-25T12:32:35.281Z,39.81
2019-04-25T12:35:01.962Z,39.94
2019-04-25T12:37:28.182Z,40.39
2019-04-25T12:39:54.363Z,40.50
2019-04-25T12:42:20.516Z,40.78
2019-04-25T12:44:48.876Z,40.72
2019-04-25T12:47:16.941Z,40.21
2019-04-25T12:49:43.822Z,39.49
2019-04-25T12:52:10.307Z,39.60
2019-04-25T12:54:36.563Z,39.84
2019-04-25T12:57:04.394Z,39.69
2019-04-25T12:59:31.445Z,40.10
2019-04-25T13:01:57.716Z,40.50
2019-04-25T13:04:23.934Z,40.21
2019-04-25T13:06:50.551Z,40.56
2019-04-25T13:09:16.871Z,40.00
2019-04-25T13:11:43.545Z,40.57
2019-04-25T13:14:09.941Z,40.75
2019-04-25T13:16:36.387Z,40.83
2019-04-25T13:19:12.749Z,40.57
2019-04-25T13:21:31.100Z,40.27
2019-04-25T13:23:58.062Z,39.95
2019-04-25T13:26:26.416Z,40.42
2019-04-25T13:28:56.136Z,40.80
2019-04-25T13:31:24.359Z,41.84
2019-04-25T13:33:54.140Z,42.10
2019-04-25T13:36:22.138Z,41.38
2019-04-25T13:38:48.406Z,41.65
2019-04-25T13:41:14.764Z,41.32
2019-04-25T13:43:40.911Z,42.05
2019-04-25T13:46:07.163Z,42.66
2019-04-25T13:48:34.679Z,42.63
2019-04-25T13:51:01.561Z,42.95
2019-04-25T13:53:28.190Z,42.70
2019-04-25T13:55:54.515Z,42.14
2019-04-25T13:58:20.817Z,41.62
2019-04-25T14:00:47.146Z,40.38
2019-04-25T14:03:13.410Z,39.69
2019-04-25T14:05:40.015Z,38.71
2019-04-25T14:08:06.123Z,38.82
2019-04-25T14:10:34.233Z,38.15
2019-04-25T14:13:00.483Z,37.27
2019-04-25T14:15:27.503Z,37.01
2019-04-25T14:17:58.370Z,37.64
2019-04-25T14:20:29.968Z,38.10
2019-04-25T14:22:56.910Z,38.06
2019-04-25T14:25:26.903Z,38.27
2019-04-25T14:27:51.703Z,38.40
2019-04-25T14:30:19.871Z,38.14
2019-04-25T14:32:46.108Z,38.35
2019-04-25T14:35:14.274Z,38.47
2019-04-25T14:37:40.863Z,38.57
2019-04-25T14:40:08.832Z,39.27
2019-04-25T14:42:35.184Z,39.16
2019-04-25T14:45:01.471Z,38.52
2019-04-25T14:47:27.886Z,37.74
2019-04-25T14:49:55.190Z,37.71
2019-04-25T14:52:21.648Z,38.10
2019-04-25T14:55:07.777Z,38.26
2019-04-25T14:57:35.105Z,38.31
2019-04-25T15:00:04.563Z,36.71
2019-04-25T15:02:32.105Z,35.59
2019-04-25T15:04:58.678Z,35.24
2019-04-25T15:07:24.803Z,35.28
2019-04-25T15:09:51.023Z,35.44
2019-04-25T15:12:17.569Z,34.95
2019-04-25T15:14:44.079Z,34.77
2019-04-25T15:17:11.428Z,34.20
2019-04-25T15:19:37.605Z,32.96
2019-04-25T15:22:04.064Z,32.03
2019-04-25T15:24:30.484Z,31.71
2019-04-25T15:26:56.591Z,31.75
2019-04-25T15:29:22.800Z,31.85
2019-04-25T15:31:55.705Z,31.49
2019-04-25T15:34:17.447Z,31.34
2019-04-25T15:36:48.465Z,31.59
2019-04-25T15:39:33.194Z,31.50
2019-04-25T15:42:06.334Z,31.28
2019-04-25T15:44:35.156Z,30.75
2019-04-25T15:47:03.212Z,30.65
2019-04-25T15:49:31.259Z,30.60
2019-04-25T15:51:57.534Z,30.51
2019-04-25T15:54:23.737Z,30.20
2019-04-25T15:56:49.899Z,29.52
2019-04-25T15:59:16.261Z,28.77
2019-04-25T16:01:42.699Z,28.33
2019-04-25T16:04:09.118Z,28.02
2019-04-25T16:06:36.191Z,27.73
2019-04-25T16:09:05.002Z,27.65
2019-04-25T16:11:33.021Z,27.65
2019-04-25T16:13:59.245Z,27.54
2019-04-25T16:16:26.758Z,27.30
2019-04-25T16:18:52.993Z,27.12
2019-04-25T16:21:19.294Z,26.96
2019-04-25T16:23:45.460Z,26.64
2019-04-25T16:26:12.867Z,26.34
2019-04-25T16:28:39.082Z,26.22
2019-04-25T16:31:08.181Z,26.09
2019-04-25T16:33:34.381Z,26.05
2019-04-25T16:36:00.607Z,25.95
2019-04-25T16:38:26.818Z,25.89
2019-04-25T16:40:53.043Z,25.60
2019-04-25T16:43:27.170Z,25.38
2019-04-25T16:45:53.528Z,25.29
2019-04-25T16:48:20.161Z,25.02
2019-04-25T16:50:46.520Z,24.95
2019-04-25T16:53:12.936Z,24.73
2019-04-25T16:55:39.053Z,24.67
2019-04-25T16:58:06.171Z,24.65
2019-04-25T17:00:40.802Z,24.62
2019-04-25T17:03:09.382Z,24.47
2019-04-25T17:05:37.937Z,24.32
2019-04-25T17:08:05.264Z,24.26
2019-04-25T17:10:31.814Z,24.10
2019-04-25T17:12:58.900Z,24.02
2019-04-25T17:15:36.274Z,23.91
2019-04-25T17:18:07.209Z,23.79
2019-04-25T17:20:35.425Z,23.71
2019-04-25T17:23:01.620Z,23.59
2019-04-25T17:25:27.968Z,23.52
2019-04-25T17:27:54.254Z,23.31
2019-04-25T17:30:20.881Z,23.21
2019-04-25T17:33:05.975Z,23.12
2019-04-25T17:35:37.113Z,22.97
2019-04-25T17:38:20.837Z,22.87
2019-04-25T17:40:47.693Z,22.78
2019-04-25T17:43:13.972Z,22.67
2019-04-25T17:45:40.128Z,22.48
2019-04-25T17:48:06.465Z,22.38
2019-04-25T17:50:32.917Z,22.31
2019-04-25T17:52:59.200Z,22.21
2019-04-25T17:55:25.710Z,22.08
2019-04-25T17:57:51.876Z,22.01
2019-04-25T18:00:33.906Z,21.97
2019-04-25T18:03:00.401Z,21.89
2019-04-25T18:05:27.557Z,21.78
2019-04-25T18:07:53.760Z,21.70
2019-04-25T18:10:20.121Z,21.59
2019-04-25T18:12:46.319Z,21.55
2019-04-25T18:15:15.603Z,21.52
2019-04-25T18:17:42.380Z,21.49
2019-04-25T18:20:11.291Z,21.43
2019-04-25T18:22:48.306Z,21.35
2019-04-25T18:25:16.508Z,21.30
2019-04-25T18:27:50.330Z,21.23
2019-04-25T18:30:16.497Z,21.16
2019-04-25T18:32:44.587Z,21.05
2019-04-25T18:35:12.974Z,20.99
2019-04-25T18:37:41.047Z,20.93
2019-04-25T18:40:09.389Z,20.86
2019-04-25T18:42:44.162Z,20.81
2019-04-25T18:45:12.715Z,20.78
2019-04-25T18:47:47.595Z,20.70
2019-04-25T18:50:15.922Z,20.67
2019-04-25T18:52:45.042Z,20.61
2019-04-25T18:55:25.474Z,20.59
2019-04-25T18:57:56.506Z,20.52
2019-04-25T19:00:43.709Z,20.43
2019-04-25T19:03:22.542Z,20.39
2019-04-25T19:05:48.591Z,20.34
2019-04-25T19:08:14.777Z,20.28
2019-04-25T19:10:40.954Z,20.21
2019-04-25T19:13:12.798Z,20.18
2019-04-25T19:15:35.286Z,20.15
2019-04-25T19:18:01.495Z,20.16
2019-04-25T19:20:27.949Z,20.12
2019-04-25T19:22:54.274Z,20.07
2019-04-25T19:25:20.509Z,20.01
2019-04-25T19:27:46.920Z,19.98
2019-04-25T19:30:14.713Z,19.93
2019-04-25T19:32:41.736Z,19.89
2019-04-25T19:35:08.584Z,19.82
2019-04-25T19:37:34.698Z,19.77
2019-04-25T19:40:21.018Z,19.74
2019-04-25T19:42:49.053Z,19.69
2019-04-25T19:45:15.352Z,19.66
2019-04-25T19:47:41.531Z,19.63
2019-04-25T19:50:08.702Z,19.60
2019-04-25T19:52:35.020Z,19.58
2019-04-25T19:55:02.204Z,19.57
2019-04-25T19:57:29.664Z,19.54
2019-04-25T19:59:56.022Z,19.47
2019-04-25T20:02:26.923Z,19.41
2019-04-25T20:04:58.199Z,19.35
2019-04-25T20:07:29.473Z,19.31
2019-04-25T20:10:14.453Z,19.28
2019-04-25T20:12:52.139Z,19.24
2019-04-25T20:15:18.538Z,19.10
2019-04-25T20:17:45.919Z,19.10
2019-04-25T20:20:13.844Z,19.04
2019-04-25T20:22:40.258Z,18.99
2019-04-25T20:25:07.222Z,18.99
2019-04-25T20:27:33.511Z,18.95
2019-04-25T20:30:00.289Z,18.95
2019-04-25T20:32:26.695Z,18.92
2019-04-25T20:34:55.264Z,18.91
2019-04-25T20:37:21.925Z,18.91
2019-04-25T20:39:49.365Z,18.77
2019-04-25T20:42:15.895Z,18.89
2019-04-25T20:44:42.276Z,18.85
2019-04-25T20:47:08.527Z,18.85
2019-04-25T20:49:34.835Z,18.71
2019-04-25T20:52:01.022Z,18.83
2019-04-25T20:54:28.348Z,18.80
2019-04-25T20:56:55.173Z,18.67
2019-04-25T20:59:21.432Z,18.79
2019-04-25T21:01:48.246Z,18.73
2019-04-25T21:04:33.452Z,18.73
2019-04-25T21:06:59.631Z,18.69
2019-04-25T21:09:29.461Z,18.65
2019-04-25T21:11:55.871Z,18.59
2019-04-25T21:14:24.175Z,18.58
2019-04-25T21:16:52.315Z,18.56
2019-04-25T21:19:26.442Z,18.52
2019-04-25T21:21:52.608Z,18.49
2019-04-25T21:24:18.799Z,18.43
2019-04-25T21:26:45.060Z,18.40
2019-04-25T21:29:11.362Z,18.34
2019-04-25T21:31:37.844Z,18.30
2019-04-25T21:34:04.195Z,18.28
2019-04-25T21:36:30.651Z,18.25
2019-04-25T21:38:57.540Z,18.25
2019-04-25T21:41:29.338Z,18.26
2019-04-25T21:43:58.023Z,18.26
2019-04-25T21:46:24.730Z,18.24
2019-04-25T21:48:51.156Z,18.22
2019-04-25T21:51:32.782Z,18.21
2019-04-25T21:54:00.400Z,18.17
2019-04-25T21:56:27.808Z,18.16
2019-04-25T21:58:54.428Z,18.11
2019-04-25T22:01:23.648Z,18.09
2019-04-25T22:03:49.911Z,18.05
2019-04-25T22:06:17.885Z,18.00
2019-04-25T22:08:44.268Z,17.98
2019-04-25T22:11:10.412Z,17.95
2019-04-25T22:13:36.954Z,17.93
2019-04-25T22:16:04.034Z,17.90
2019-04-25T22:18:30.509Z,17.88
2019-04-25T22:20:56.878Z,17.85
2019-04-25T22:23:23.035Z,17.83
2019-04-25T22:25:49.676Z,17.79
2019-04-25T22:28:16.025Z,17.77
2019-04-25T22:30:44.347Z,17.75
2019-04-25T22:33:18.356Z,17.73
2019-04-25T22:35:46.484Z,17.70
2019-04-25T22:38:13.074Z,17.70
2019-04-25T22:40:39.502Z,17.66
2019-04-25T22:43:07.751Z,17.65
2019-04-25T22:45:34.708Z,17.62
2019-04-25T22:48:01.318Z,17.61
2019-04-25T22:50:28.639Z,17.56
2019-04-25T22:52:54.854Z,17.55
2019-04-25T22:55:21.110Z,17.53
2019-04-25T22:57:47.355Z,17.49
2019-04-25T23:00:15.683Z,17.46
2019-04-25T23:02:51.751Z,17.42
2019-04-25T23:05:22.927Z,17.37
2019-04-25T23:07:49.104Z,17.31
2019-04-25T23:10:15.675Z,17.27
2019-04-25T23:12:41.952Z,17.24
2019-04-25T23:15:08.826Z,17.21
2019-04-25T23:17:35.235Z,17.18
2019-04-25T23:20:04.199Z,17.17
2019-04-25T23:22:30.548Z,17.12
2019-04-25T23:25:05.068Z,17.10
2019-04-25T23:27:49.164Z,17.09
2019-04-25T23:30:17.633Z,17.06
2019-04-25T23:32:43.859Z,17.03
2019-04-25T23:35:24.260Z,17.03
2019-04-25T23:37:38.482Z,17.02
2019-04-25T23:40:05.142Z,17.02
2019-04-25T23:42:32.423Z,17.02
2019-04-25T23:44:59.764Z,17.00
2019-04-25T23:47:25.923Z,16.99
2019-04-25T23:49:52.127Z,16.97
2019-04-25T23:52:18.742Z,16.96
2019-04-25T23:54:44.966Z,16.95
2019-04-25T23:57:11.519Z,16.95
2019-04-25T23:59:37.699Z,16.94
